createdAt,value
2022-11-15T00:01:18.998Z,7.95
2022-11-15T00:03:47.511Z,8.02
2022-11-15T00:06:15.836Z,7.93
2022-11-15T00:08:44.316Z,8.18
2022-11-15T00:11:15.642Z,8.02
2022-11-15T00:13:44.027Z,8.45
2022-11-15T00:16:13.702Z,8.73
2022-11-15T00:18:46.349Z,8.55
2022-11-15T00:21:18.209Z,8.02
2022-11-15T00:23:46.534Z,8.30
2022-11-15T00:26:15.550Z,8.98
2022-11-15T00:28:44.369Z,8.20
2022-11-15T00:31:15.178Z,8.18
2022-11-15T00:33:45.378Z,8.93
2022-11-15T00:36:13.827Z,8.45
2022-11-15T00:38:42.671Z,8.60
2022-11-15T00:41:11.071Z,8.27
2022-11-15T00:43:40.880Z,7.60
2022-11-15T00:46:10.719Z,8.30
2022-11-15T00:48:40.671Z,7.90
2022-11-15T00:51:08.986Z,8.18
2022-11-15T00:53:37.497Z,7.68
2022-11-15T00:56:06.036Z,7.97
2022-11-15T00:58:34.513Z,7.95
2022-11-15T01:01:09.622Z,7.75
2022-11-15T01:03:38.084Z,7.50
2022-11-15T01:06:08.302Z,7.93
2022-11-15T01:08:36.680Z,7.88
2022-11-15T01:11:05.500Z,7.80
2022-11-15T01:13:34.443Z,8.00
2022-11-15T01:16:08.236Z,8.07
2022-11-15T01:18:36.592Z,8.75
2022-11-15T01:21:09.159Z,7.57
2022-11-15T01:23:37.511Z,8.10
2022-11-15T01:26:06.853Z,6.82
2022-11-15T01:28:35.947Z,8.02
2022-11-15T01:31:05.431Z,8.35
2022-11-15T01:33:33.978Z,7.40
2022-11-15T01:36:06.007Z,7.70
2022-11-15T01:38:35.922Z,7.85
2022-11-15T01:41:04.272Z,7.05
2022-11-15T01:43:34.361Z,7.68
2022-11-15T01:46:05.021Z,7.88
2022-11-15T01:48:34.696Z,6.95
2022-11-15T01:51:03.998Z,7.45
2022-11-15T01:53:33.048Z,7.45
2022-11-15T01:56:05.227Z,7.15
2022-11-15T01:58:34.242Z,7.50
2022-11-15T02:01:02.746Z,7.15
2022-11-15T02:03:34.926Z,8.07
2022-11-15T02:06:03.333Z,6.88
2022-11-15T02:08:31.973Z,7.30
2022-11-15T02:11:00.329Z,7.13
2022-11-15T02:13:30.310Z,7.32
2022-11-15T02:16:03.342Z,7.38
2022-11-15T02:18:35.851Z,7.13
2022-11-15T02:21:16.745Z,7.43
2022-11-15T02:23:58.326Z,7.05
2022-11-15T02:26:59.647Z,7.18
2022-11-15T02:29:34.018Z,7.15
2022-11-15T02:32:07.277Z,7.05
2022-11-15T02:34:38.137Z,6.45
2022-11-15T02:37:10.307Z,7.28
2022-11-15T02:39:41.547Z,6.70
2022-11-15T02:42:32.320Z,6.72
2022-11-15T02:45:00.907Z,7.15
2022-11-15T02:47:33.062Z,7.03
2022-11-15T02:50:03.442Z,7.68
2022-11-15T02:52:31.843Z,6.85
2022-11-15T02:55:01.033Z,6.63
2022-11-15T02:57:36.895Z,6.90
2022-11-15T03:00:09.484Z,6.80
2022-11-15T03:02:48.126Z,6.72
2022-11-15T03:05:20.866Z,6.82
2022-11-15T03:07:58.097Z,7.22
2022-11-15T03:10:31.572Z,7.35
2022-11-15T03:13:02.163Z,6.90
2022-11-15T03:15:32.559Z,6.97
2022-11-15T03:18:03.655Z,6.85
2022-11-15T03:20:33.549Z,7.30
2022-11-15T03:23:03.950Z,7.40
2022-11-15T03:25:33.702Z,7.03
2022-11-15T03:28:03.929Z,7.95
2022-11-15T03:30:33.901Z,7.30
2022-11-15T03:33:05.221Z,7.05
2022-11-15T03:35:35.554Z,8.13
2022-11-15T03:38:09.070Z,7.60
2022-11-15T03:40:40.484Z,7.40
2022-11-15T03:43:12.798Z,7.50
2022-11-15T03:45:44.328Z,7.72
2022-11-15T03:48:16.433Z,7.70
2022-11-15T03:50:45.811Z,7.57
2022-11-15T03:53:15.036Z,7.30
2022-11-15T03:55:43.470Z,7.47
2022-11-15T03:58:11.887Z,7.13
2022-11-15T04:00:40.285Z,7.70
2022-11-15T04:03:09.429Z,7.32
2022-11-15T04:05:39.223Z,7.70
2022-11-15T04:08:07.621Z,7.07
2022-11-15T04:10:36.037Z,7.47
2022-11-15T04:13:05.396Z,7.50
2022-11-15T04:15:33.964Z,6.63
2022-11-15T04:18:02.344Z,7.53
2022-11-15T04:21:03.696Z,6.47
2022-11-15T04:24:02.674Z,6.75
2022-11-15T04:26:31.126Z,6.72
2022-11-15T04:29:17.364Z,6.70
2022-11-15T04:31:45.777Z,6.03
2022-11-15T04:34:14.146Z,6.32
2022-11-15T04:37:00.271Z,6.47
2022-11-15T04:39:30.023Z,6.72
2022-11-15T04:41:58.417Z,6.20
2022-11-15T04:44:26.812Z,6.15
2022-11-15T04:46:55.219Z,6.00
2022-11-15T04:49:23.664Z,6.38
2022-11-15T04:51:52.060Z,6.20
2022-11-15T04:54:20.450Z,6.32
2022-11-15T04:56:50.218Z,6.20
2022-11-15T04:59:18.590Z,6.18
2022-11-15T05:01:47.060Z,5.63
2022-11-15T05:06:36.644Z,5.65
2022-11-15T05:09:05.463Z,5.38
2022-11-15T05:11:33.844Z,5.57
2022-11-15T05:14:02.247Z,5.60
2022-11-15T05:18:29.224Z,5.25
2022-11-15T05:20:57.842Z,4.88
2022-11-15T05:23:26.192Z,5.10
2022-11-15T05:25:54.582Z,5.20
2022-11-15T05:28:22.978Z,5.30
2022-11-15T05:30:51.690Z,5.50
2022-11-15T05:33:20.230Z,5.32
2022-11-15T05:35:53.477Z,5.22
2022-11-15T05:38:22.212Z,5.68
2022-11-15T05:40:50.669Z,5.60
2022-11-15T05:43:19.043Z,5.93
2022-11-15T05:45:47.455Z,6.18
2022-11-15T05:48:16.354Z,6.25
2022-11-15T05:50:47.787Z,6.63
2022-11-15T05:53:18.919Z,5.97
2022-11-15T05:55:47.499Z,6.32
2022-11-15T05:58:15.897Z,6.68
2022-11-15T06:00:44.408Z,6.30
2022-11-15T06:03:15.076Z,6.80
2022-11-15T06:05:43.512Z,6.22
2022-11-15T06:08:11.894Z,6.70
2022-11-15T06:10:41.741Z,7.18
2022-11-15T06:13:10.148Z,6.95
2022-11-15T06:15:38.529Z,7.47
2022-11-15T06:18:07.051Z,7.47
2022-11-15T06:20:35.474Z,7.38
2022-11-15T06:23:04.600Z,7.35
2022-11-15T06:25:33.567Z,6.68
2022-11-15T06:28:03.280Z,6.88
2022-11-15T06:30:31.675Z,6.63
2022-11-15T06:33:03.702Z,6.57
2022-11-15T06:35:32.651Z,6.55
2022-11-15T06:38:04.780Z,6.47
2022-11-15T06:40:33.206Z,6.20
2022-11-15T06:43:03.029Z,6.22
2022-11-15T06:45:32.614Z,6.15
2022-11-15T06:48:01.350Z,6.15
2022-11-15T06:50:29.858Z,6.15
2022-11-15T06:52:58.557Z,5.65
2022-11-15T06:55:26.937Z,5.88
2022-11-15T06:57:55.619Z,6.15
2022-11-15T07:00:25.536Z,5.47
2022-11-15T07:02:53.917Z,5.97
2022-11-15T07:05:22.313Z,5.65
2022-11-15T07:07:56.911Z,5.80
2022-11-15T07:10:26.287Z,5.78
2022-11-15T07:12:54.892Z,5.72
2022-11-15T07:15:25.318Z,5.85
2022-11-15T07:17:53.989Z,5.60
2022-11-15T07:20:22.394Z,5.32
2022-11-15T07:22:50.798Z,5.78
2022-11-15T07:25:19.295Z,5.47
2022-11-15T07:27:56.863Z,5.15
2022-11-15T07:30:27.372Z,4.95
2022-11-15T07:32:56.304Z,4.85
2022-11-15T07:35:24.702Z,4.80
2022-11-15T07:37:56.989Z,4.40
2022-11-15T07:40:25.696Z,4.90
2022-11-15T07:42:58.070Z,4.32
2022-11-15T07:45:28.334Z,4.35
2022-11-15T07:47:56.985Z,4.13
2022-11-15T07:50:25.830Z,4.30
2022-11-15T07:52:57.497Z,4.00
2022-11-15T07:55:25.989Z,3.45
2022-11-15T07:57:54.459Z,4.07
2022-11-15T08:00:23.020Z,3.45
2022-11-15T08:02:52.872Z,2.63
2022-11-15T08:05:21.352Z,2.65
2022-11-15T08:07:52.605Z,1.80
2022-11-15T08:10:21.656Z,2.03
2022-11-15T08:12:50.134Z,2.22
2022-11-15T08:15:18.514Z,1.90
2022-11-15T08:17:46.895Z,1.67
2022-11-15T08:20:17.094Z,1.58
2022-11-15T08:22:45.732Z,1.30
2022-11-15T08:25:17.144Z,1.50
2022-11-15T08:27:45.973Z,1.35
2022-11-15T08:30:16.993Z,1.33
2022-11-15T08:32:45.373Z,1.60
2022-11-15T08:35:13.768Z,1.10
2022-11-15T08:37:43.661Z,1.15
2022-11-15T08:40:12.518Z,1.10
2022-11-15T08:42:40.916Z,1.13
2022-11-15T08:45:10.278Z,1.30
2022-11-15T08:47:38.688Z,1.20
2022-11-15T08:50:07.470Z,1.50
2022-11-15T08:52:35.864Z,1.48
2022-11-15T08:55:05.888Z,1.33
2022-11-15T08:57:34.266Z,1.50
2022-11-15T09:00:02.724Z,1.20
2022-11-15T09:02:31.181Z,1.58
2022-11-15T09:04:59.634Z,1.55
2022-11-15T09:07:30.859Z,1.77
2022-11-15T09:09:59.534Z,2.10
2022-11-15T09:12:29.346Z,2.00
2022-11-15T09:14:57.803Z,2.00
2022-11-15T09:17:26.183Z,2.13
2022-11-15T09:19:54.670Z,2.10
2022-11-15T09:22:23.162Z,2.60
2022-11-15T09:24:51.607Z,2.50
2022-11-15T09:27:20.067Z,3.05
2022-11-15T09:29:49.851Z,2.85
2022-11-15T09:32:19.132Z,3.00
2022-11-15T09:34:47.600Z,3.40
2022-11-15T09:37:16.015Z,3.05
2022-11-15T09:39:44.422Z,3.08
2022-11-15T09:42:25.781Z,2.78
2022-11-15T09:45:04.043Z,2.90
2022-11-15T09:47:49.660Z,2.65
2022-11-15T09:50:31.768Z,2.28
2022-11-15T09:53:00.188Z,2.55
2022-11-15T09:55:34.532Z,2.70
2022-11-15T09:58:06.184Z,2.00
2022-11-15T10:00:47.454Z,1.98
2022-11-15T10:03:17.681Z,2.10
2022-11-15T10:05:48.288Z,1.98
2022-11-15T10:08:26.173Z,1.92
2022-11-15T10:11:15.796Z,1.48
2022-11-15T10:13:45.747Z,1.75
2022-11-15T10:16:24.792Z,1.80
2022-11-15T10:18:58.889Z,1.88
2022-11-15T10:21:32.067Z,1.55
2022-11-15T10:24:00.766Z,1.60
2022-11-15T10:26:29.772Z,2.08
2022-11-15T10:28:58.147Z,1.45
2022-11-15T10:31:28.967Z,1.63
2022-11-15T10:34:02.316Z,1.63
2022-11-15T10:36:30.746Z,1.90
2022-11-15T10:39:02.205Z,1.45
2022-11-15T10:41:40.880Z,1.58
2022-11-15T10:44:21.047Z,1.90
2022-11-15T10:46:51.834Z,1.35
2022-11-15T10:49:20.967Z,1.50
2022-11-15T10:51:50.071Z,1.63
2022-11-15T10:54:24.162Z,1.30
2022-11-15T10:56:53.651Z,1.77
2022-11-15T10:59:26.494Z,2.00
2022-11-15T11:01:56.224Z,1.65
2022-11-15T11:04:24.581Z,1.38
2022-11-15T11:06:53.878Z,1.63
2022-11-15T11:09:28.085Z,1.60
2022-11-15T11:11:56.424Z,1.30
2022-11-15T11:14:28.215Z,1.40
2022-11-15T11:17:00.268Z,1.40
2022-11-15T11:19:44.711Z,1.30
2022-11-15T11:22:19.353Z,1.33
2022-11-15T11:24:50.913Z,1.40
2022-11-15T11:27:28.436Z,1.30
2022-11-15T11:30:04.852Z,1.33
2022-11-15T11:32:42.233Z,1.23
2022-11-15T11:35:14.684Z,1.27
2022-11-15T11:37:47.975Z,1.10
2022-11-15T11:40:24.063Z,1.25
2022-11-15T11:43:00.279Z,1.50
2022-11-15T11:45:34.993Z,1.40
2022-11-15T11:48:11.578Z,1.20
2022-11-15T11:50:40.680Z,1.30
2022-11-15T11:53:13.828Z,1.38
2022-11-15T11:55:44.154Z,1.30
2022-11-15T11:58:15.092Z,1.50
2022-11-15T12:00:44.649Z,1.30
2022-11-15T12:03:21.915Z,1.42
2022-11-15T12:05:52.806Z,1.15
2022-11-15T12:08:26.314Z,1.50
2022-11-15T12:10:57.574Z,1.48
2022-11-15T12:13:28.652Z,1.30
2022-11-15T12:16:02.883Z,1.20
2022-11-15T12:18:35.888Z,1.50
2022-11-15T12:21:07.629Z,1.20
2022-11-15T12:23:40.818Z,1.30
2022-11-15T12:26:11.146Z,1.42
2022-11-15T12:28:58.441Z,1.30
2022-11-15T12:31:36.296Z,1.52
2022-11-15T12:34:07.610Z,1.20
2022-11-15T12:36:40.668Z,1.40
2022-11-15T12:39:10.063Z,1.30
2022-11-15T12:41:39.133Z,1.08
2022-11-15T12:44:12.743Z,1.30
2022-11-15T12:46:59.773Z,1.40
2022-11-15T12:49:46.767Z,1.20
2022-11-15T12:52:16.820Z,1.17
2022-11-15T12:55:02.845Z,1.60
2022-11-15T12:57:35.769Z,1.30
2022-11-15T13:00:05.407Z,1.35
2022-11-15T13:02:35.188Z,1.50
2022-11-15T13:05:28.255Z,1.30
2022-11-15T13:08:01.958Z,1.10
2022-11-15T13:10:34.716Z,1.20
2022-11-15T13:13:04.330Z,1.45
2022-11-15T13:15:53.433Z,1.25
2022-11-15T13:18:30.851Z,1.15
2022-11-15T13:21:02.340Z,1.20
2022-11-15T13:23:33.633Z,1.63
2022-11-15T13:26:12.326Z,1.30
2022-11-15T13:28:42.391Z,1.50
2022-11-15T13:31:26.592Z,1.05
2022-11-15T13:33:55.505Z,1.30
2022-11-15T13:36:24.775Z,2.05
2022-11-15T13:39:02.169Z,3.80
2022-11-15T13:41:31.461Z,4.70
2022-11-15T13:44:00.765Z,5.70
2022-11-15T13:46:30.423Z,2.10
2022-11-15T13:49:00.765Z,1.80
2022-11-15T13:51:33.004Z,1.52
2022-11-15T13:54:04.962Z,1.40
2022-11-15T13:56:35.066Z,1.20
2022-11-15T13:59:03.855Z,1.20
2022-11-15T14:01:34.275Z,1.58
2022-11-15T14:04:03.483Z,1.40
2022-11-15T14:06:32.942Z,1.30
2022-11-15T14:09:17.779Z,1.27
2022-11-15T14:11:52.735Z,1.17
2022-11-15T14:14:23.253Z,1.30
2022-11-15T14:16:54.889Z,1.38
2022-11-15T14:19:37.176Z,1.40
2022-11-15T14:22:12.630Z,1.40
2022-11-15T14:24:42.796Z,1.30
2022-11-15T14:27:25.132Z,1.17
2022-11-15T14:29:53.830Z,1.40
2022-11-15T14:32:23.055Z,1.35
2022-11-15T14:34:52.468Z,1.45
2022-11-15T14:37:22.962Z,1.20
2022-11-15T14:39:53.325Z,1.17
2022-11-15T14:42:22.189Z,1.50
2022-11-15T14:44:50.592Z,1.60
2022-11-15T14:47:19.072Z,1.35
2022-11-15T14:49:47.633Z,1.52
2022-11-15T14:52:35.265Z,2.35
2022-11-15T14:55:06.625Z,4.10
2022-11-15T14:57:36.215Z,9.45
2022-11-15T15:00:05.269Z,5.55
2022-11-15T15:02:33.799Z,4.03
2022-11-15T15:05:04.150Z,2.30
2022-11-15T15:07:32.575Z,2.17
2022-11-15T15:10:32.549Z,2.63
2022-11-15T15:12:50.889Z,2.15
2022-11-15T15:15:20.564Z,2.00
2022-11-15T15:17:49.178Z,1.85
2022-11-15T15:20:17.999Z,1.92
2022-11-15T15:22:46.884Z,1.90
2022-11-15T15:25:23.113Z,2.17
2022-11-15T15:27:52.917Z,2.30
2022-11-15T15:30:21.529Z,2.50
2022-11-15T15:32:49.969Z,2.30
2022-11-15T15:35:19.025Z,2.28
2022-11-15T15:37:48.087Z,2.55
2022-11-15T15:40:19.075Z,2.28
2022-11-15T15:42:47.448Z,2.10
2022-11-15T15:45:17.579Z,2.22
2022-11-15T15:47:46.465Z,2.30
2022-11-15T15:50:19.958Z,2.20
2022-11-15T15:52:48.310Z,2.22
2022-11-15T15:55:17.078Z,2.33
2022-11-15T15:57:45.450Z,2.40
2022-11-15T16:00:14.407Z,2.25
2022-11-15T16:02:44.357Z,2.28
2022-11-15T16:05:13.149Z,2.17
2022-11-15T16:07:44.206Z,2.20
2022-11-15T16:10:19.663Z,2.20
2022-11-15T16:12:49.307Z,2.55
2022-11-15T16:15:17.784Z,2.47
2022-11-15T16:17:49.678Z,11.63
2022-11-15T16:20:24.641Z,3.42
2022-11-15T16:22:53.013Z,2.55
2022-11-15T16:25:21.381Z,2.58
2022-11-15T16:27:49.978Z,2.30
2022-11-15T16:30:19.420Z,2.33
2022-11-15T16:32:49.667Z,2.22
2022-11-15T16:35:18.864Z,1.80
2022-11-15T16:37:50.307Z,1.92
2022-11-15T16:40:26.682Z,2.50
2022-11-15T16:42:56.380Z,2.25
2022-11-15T16:45:24.866Z,2.33
2022-11-15T16:47:55.005Z,2.40
2022-11-15T16:50:26.001Z,2.45
2022-11-15T16:52:55.059Z,2.13
2022-11-15T16:55:23.881Z,2.42
2022-11-15T16:57:52.258Z,2.58
2022-11-15T17:00:21.447Z,2.15
2022-11-15T17:02:51.821Z,1.98
2022-11-15T17:05:22.852Z,2.30
2022-11-15T17:07:54.111Z,2.22
2022-11-15T17:10:22.892Z,2.45
2022-11-15T17:12:51.400Z,2.85
2022-11-15T17:15:20.109Z,2.65
2022-11-15T17:17:53.140Z,2.10
2022-11-15T17:20:23.588Z,2.55
2022-11-15T17:22:52.739Z,2.30
2022-11-15T17:25:21.260Z,2.53
2022-11-15T17:27:49.694Z,2.10
2022-11-15T17:30:18.774Z,2.13
2022-11-15T17:32:48.172Z,2.00
2022-11-15T17:35:16.563Z,2.20
2022-11-15T17:37:47.263Z,1.92
2022-11-15T17:40:15.660Z,2.10
2022-11-15T17:42:44.729Z,2.10
2022-11-15T17:45:13.194Z,2.15
2022-11-15T17:47:41.553Z,1.90
2022-11-15T17:50:10.646Z,2.38
2022-11-15T17:52:38.981Z,2.00
2022-11-15T17:55:09.113Z,2.17
2022-11-15T17:57:37.562Z,1.80
2022-11-15T18:00:06.545Z,2.08
2022-11-15T18:02:34.894Z,1.90
2022-11-15T18:05:03.314Z,2.17
2022-11-15T18:07:31.736Z,1.95
2022-11-15T18:10:00.181Z,2.05
2022-11-15T18:12:29.899Z,2.10
2022-11-15T18:15:00.092Z,1.80
2022-11-15T18:17:28.770Z,1.70
2022-11-15T18:19:57.095Z,1.73
2022-11-15T18:22:25.446Z,2.10
2022-11-15T18:24:53.771Z,1.95
2022-11-15T18:27:22.159Z,2.00
2022-11-15T18:29:51.994Z,2.42
2022-11-15T18:32:21.019Z,1.90
2022-11-15T18:34:49.588Z,2.03
2022-11-15T18:37:17.961Z,2.10
2022-11-15T18:39:51.047Z,2.30
2022-11-15T18:42:21.390Z,2.40
2022-11-15T18:44:49.859Z,2.10
2022-11-15T18:47:19.884Z,2.15
2022-11-15T18:49:48.948Z,2.25
2022-11-15T18:52:17.569Z,2.67
2022-11-15T18:54:46.063Z,2.97
2022-11-15T18:57:14.638Z,2.22
2022-11-15T18:59:42.969Z,2.60
2022-11-15T19:02:13.224Z,2.78
2022-11-15T19:04:42.988Z,2.55
2022-11-15T19:07:11.410Z,2.78
2022-11-15T19:09:39.945Z,2.70
2022-11-15T19:12:08.529Z,3.63
2022-11-15T19:14:36.953Z,3.20
2022-11-15T19:17:05.384Z,2.80
2022-11-15T19:19:33.784Z,2.95
2022-11-15T19:22:03.855Z,3.33
2022-11-15T19:24:32.179Z,3.20
2022-11-15T19:27:00.559Z,3.15
2022-11-15T19:29:28.901Z,3.38
2022-11-15T19:31:57.251Z,3.13
2022-11-15T19:34:25.910Z,3.20
2022-11-15T19:36:54.253Z,3.40
2022-11-15T19:39:24.196Z,3.42
2022-11-15T19:41:52.573Z,3.60
2022-11-15T19:44:22.736Z,3.58
2022-11-15T19:46:51.091Z,3.88
2022-11-15T19:49:19.731Z,4.22
2022-11-15T19:51:48.508Z,3.92
2022-11-15T19:54:17.574Z,3.92
2022-11-15T19:56:47.314Z,4.03
2022-11-15T19:59:17.393Z,4.07
2022-11-15T20:01:45.762Z,3.92
2022-11-15T20:04:14.160Z,3.92
2022-11-15T20:06:43.528Z,4.03
2022-11-15T20:09:13.776Z,4.40
2022-11-15T20:11:42.234Z,3.90
2022-11-15T20:14:13.193Z,4.63
2022-11-15T20:16:41.963Z,3.95
2022-11-15T20:19:12.365Z,3.78
2022-11-15T20:21:40.946Z,4.28
2022-11-15T20:24:10.117Z,4.25
2022-11-15T20:26:38.907Z,3.90
2022-11-15T20:29:08.546Z,3.78
2022-11-15T20:31:38.510Z,3.85
2022-11-15T20:34:07.057Z,4.10
2022-11-15T20:36:35.503Z,4.38
2022-11-15T20:39:03.884Z,3.92
2022-11-15T20:41:32.189Z,4.18
2022-11-15T20:44:03.002Z,4.00
2022-11-15T20:46:31.374Z,4.22
2022-11-15T20:49:01.180Z,3.97
2022-11-15T20:51:29.598Z,4.07
2022-11-15T20:53:58.018Z,4.00
2022-11-15T20:56:26.626Z,4.00
2022-11-15T20:58:56.466Z,3.80
2022-11-15T21:01:25.610Z,3.85
2022-11-15T21:03:54.871Z,4.38
2022-11-15T21:06:25.300Z,4.63
2022-11-15T21:09:12.165Z,4.72
2022-11-15T21:11:58.204Z,4.55
2022-11-15T21:14:26.601Z,4.50
2022-11-15T21:16:55.075Z,4.20
2022-11-15T21:19:30.144Z,4.10
2022-11-15T21:22:04.207Z,4.28
2022-11-15T21:24:32.580Z,4.50
2022-11-15T21:27:00.956Z,4.55
2022-11-15T21:29:29.315Z,5.07
2022-11-15T21:31:57.762Z,4.68
2022-11-15T21:34:26.448Z,4.93
2022-11-15T21:36:55.540Z,5.05
2022-11-15T21:39:25.457Z,4.45
2022-11-15T21:41:53.772Z,4.68
2022-11-15T21:44:22.137Z,4.65
2022-11-15T21:46:51.142Z,4.13
2022-11-15T21:49:20.967Z,4.43
2022-11-15T21:51:49.312Z,4.57
2022-11-15T21:54:18.915Z,4.82
2022-11-15T21:56:48.634Z,4.80
2022-11-15T21:59:17.005Z,4.25
2022-11-15T22:02:03.130Z,4.85
2022-11-15T22:04:31.451Z,4.90
2022-11-15T22:06:59.928Z,4.90
2022-11-15T22:09:28.312Z,4.57
2022-11-15T22:11:58.026Z,4.82
2022-11-15T22:14:26.359Z,4.32
2022-11-15T22:16:54.917Z,4.80
2022-11-15T22:19:23.344Z,5.03
2022-11-15T22:21:51.692Z,4.57
2022-11-15T22:24:21.549Z,4.40
2022-11-15T22:26:49.905Z,4.95
2022-11-15T22:29:19.604Z,4.10
2022-11-15T22:31:47.974Z,4.72
2022-11-15T22:34:16.628Z,4.90
2022-11-15T22:37:13.119Z,4.55
2022-11-15T22:39:34.287Z,4.70
2022-11-15T22:42:02.861Z,4.32
2022-11-15T22:44:37.222Z,4.28
2022-11-15T22:47:06.665Z,4.22
2022-11-15T22:49:34.993Z,4.43
2022-11-15T22:52:03.353Z,4.57
2022-11-15T22:54:32.498Z,4.05
2022-11-15T22:57:00.859Z,4.35
2022-11-15T22:59:29.191Z,4.53
2022-11-15T23:01:58.903Z,5.00
2022-11-15T23:04:27.234Z,4.90
2022-11-15T23:06:55.658Z,4.45
2022-11-15T23:09:24.016Z,4.55
2022-11-15T23:12:10.102Z,4.78
2022-11-15T23:14:38.441Z,4.20
2022-11-15T23:17:08.204Z,4.53
2022-11-15T23:19:36.593Z,5.22
2022-11-15T23:22:22.420Z,4.57
2022-11-15T23:24:53.223Z,4.65
2022-11-15T23:27:21.588Z,4.65
2022-11-15T23:30:07.694Z,4.40
2022-11-15T23:32:54.995Z,4.13
2022-11-15T23:35:23.336Z,4.28
2022-11-15T23:37:51.682Z,4.50
2022-11-15T23:40:20.073Z,4.22
2022-11-15T23:42:48.440Z,4.95
2022-11-15T23:45:17.045Z,3.95
2022-11-15T23:47:46.777Z,4.70
2022-11-15T23:50:15.115Z,4.90
2022-11-15T23:52:43.491Z,4.18
2022-11-15T23:55:11.913Z,4.50
2022-11-15T23:57:40.287Z,4.82
